AirNav   Air Wisconsin pilot careers
 
 899 users online  

0Y6 Lake Mills Municipal Airport
Lake Mills, Iowa, USA

GOING TO LAKE MILLS?


FAA INFORMATION EFFECTIVE 13 SEPTEMBER 2018

Location

FAA Identifier: 0Y6
Lat/Long: 43-24-49.2000N / 093-30-42.3000W
43-24.820000N / 093-30.705000W
43.4136667 / -93.5117500
(estimated)
Elevation: 1260 ft. / 384.0 m (surveyed)
Variation: 04E (1985)
From city: 1 mile E of LAKE MILLS, IA
Time zone: UTC -5 (UTC -6 during Standard Time)
Zip code: 50450

Airport Operations

Airport use: Open to the public
Activation date: 01/1974
Control tower: no
ARTCC: MINNEAPOLIS CENTER
FSS: FORT DODGE FLIGHT SERVICE STATION
NOTAMs facility: FOD (NOTAM-D service available)
Attendance: UNATNDD
Wind indicator: lighted
Segmented circle: no
Beacon: white-green (lighted land airport)
Operates sunset to sunrise.

Airport Communications

CTAF: 122.9
WX AWOS-3 at FXY (12 nm SW): 123.925 (641-581-2347)
WX AWOS-3 at AEL (17 nm N): 109.8 (507-377-1583)
WX ASOS at MCW (17 nm SE): 120.300 (641-357-8490)

Nearby radio navigation aids

VOR radial/distance  VOR name  Freq  Var
AELr200/17.2ALBERT LEA VOR/DME109.8001E
MCWr331/20.7MASON CITY VOR/DME114.9006E
JAYr246/27.6AUSTIN VOR/DME108.2003E

 
NDB name  Hdg/Dist  Freq  Var  ID
FOREST CITY021/11.735903EFXY ..-. -..- -.--

Airport Services

Parking: tiedowns
Airframe service: NONE
Powerplant service: NONE
Bottled oxygen: NONE
Bulk oxygen: NONE

Runway Information

Runway 18/36

Dimensions: 3380 x 100 ft. / 1030 x 30 m
Surface: turf, in fair condition
Runway edge lights: low intensity
Runway edge markings: & 36 THLDS & EDGES MARKED WITH YELLOW CONES.
RUNWAY 18  RUNWAY 36
Latitude: 43-25.098000N43-24.541667N
Longitude: 093-30.708333W093-30.700000W
Traffic pattern: leftleft
Displaced threshold: no190 ft.
Obstructions: 57 ft. trees, 2157 ft. from runway, 100 ft. left of centerline, 37:1 slope to clear96 ft. trees, 1734 ft. from runway, 100 ft. left of centerline, 18:1 slope to clear
APCH RATIO 20:1 TO DSPLCD THLD.

Airport Ownership and Management from official FAA records

Ownership: Publicly-owned
Owner: CITY OF LAKE MILLS
105 W. MAIN
LAKE MILLS, IA 50450
Phone 641-592-3251
Manager: ROSS HANSON
105 W. MAIN
LAKE MILLS, IA 50450
Phone 641-592-2441

Airport Operational Statistics

Aircraft based on the field: 4
Single engine airplanes: 3
Ultralights: 1
    
Aircraft operations: avg 83/month *
57% transient general aviation
43% local general aviation
* for 12-month period ending 13 August 2015

Additional Remarks

ARPT CLSD DEC-MAR.
TELEPHONE IN HANGAR - LOCAL CALLS ONLY.

Instrument Procedures

There are no published instrument procedures at 0Y6.

Some nearby airports with instrument procedures:

KFXY - Forest City Municipal Airport (12 nm SW)
KAEL - Albert Lea Municipal Airport (17 nm N)
KMCW - Mason City Municipal Airport (17 nm SE)
KSBU - Blue Earth Municipal Airport (28 nm NW)
KAUM - Austin Municipal Airport (29 nm NE)
 
Loc | Ops | Rwys | IFR | FBO | Links
Com | Nav | Svcs | Stats | Notes


 
Area around 0Y6 (Lake Mills Municipal Airport)
 
Road maps at: MapQuest Bing Google
 
Aerial photo
No photo
 
Sectional chart

 
Airport distance calculator
Flying to Lake Mills Municipal Airport? Find the distance to fly.

From to 0Y6

Sunrise and sunset
Times for 22-Sep-2018
 Local
(UTC-5)
 Zulu
(UTC)
Morning civil twilight06:3411:34
Sunrise07:0212:02
Sunset19:1100:11
Evening civil twilight19:4000:40

Current date and time
Zulu (UTC)  22-Sep-2018 20:18:55
Local (UTC-5)  22-Sep-2018 15:18:55
 
METAR
KFXY 
12nm SW 
221955Z AUTO 17007G15KT 10SM CLR 18/08 A3018 RMK AO2
KAEL 
16nm NE 
221955Z AUTO 18009KT 10SM CLR 18/08 A3017 RMK AO2
KMCW 
18nm SE 
221953Z AUTO 17007G16KT 10SM CLR 18/08 A3020 RMK AO2 SLP225 T01830083
TAF
KMCW 
18nm SE 
221730Z 2218/2318 18009KT P6SM SKC
NOTAMs
Click for the latest NOTAMs
NOTAMs are issued by the DoD/FAA and will open in a separate window not controlled by AirNav.

 

 
 

Would you like to see your business listed on this page?

 If your business provides an interesting product or service to pilots, flight crews, aircraft, or users of the Lake Mills Municipal Airport, you should consider listing it here.  To start the listing process, click on the button below
 
Add a business
 

Other Pages about Lake Mills Municipal Airport

Page from the Iowa Airport Directory
 
Update a link
 
Copyright © AirNav, LLC. All rights reserved. Privacy Policy  Contact